createdAt,value
2022-12-31T00:04:59.098Z,6.93
2022-12-31T00:10:02.347Z,5.77
2022-12-31T00:15:06.171Z,5.47
2022-12-31T00:20:11.833Z,7.13
2022-12-31T00:25:15.200Z,7.37
2022-12-31T00:30:18.807Z,6.90
2022-12-31T00:35:23.437Z,7.17
2022-12-31T00:40:26.685Z,6.57
2022-12-31T00:45:30.001Z,7.68
2022-12-31T00:50:34.633Z,8.07
2022-12-31T00:55:37.944Z,8.37
2022-12-31T01:00:41.309Z,8.23
2022-12-31T01:05:45.941Z,6.67
2022-12-31T01:11:09.438Z,7.17
2022-12-31T01:16:14.777Z,8.90
2022-12-31T01:21:20.520Z,11.13
2022-12-31T01:26:23.805Z,8.30
2022-12-31T01:31:27.278Z,8.88
2022-12-31T01:36:33.543Z,9.70
2022-12-31T01:41:39.427Z,7.10
2022-12-31T01:46:45.936Z,8.40
2022-12-31T01:51:55.797Z,8.67
2022-12-31T01:56:59.814Z,8.97
2022-12-31T02:02:03.604Z,9.47
2022-12-31T02:07:10.607Z,11.65
2022-12-31T02:12:13.990Z,8.97
2022-12-31T02:17:26.571Z,8.02
2022-12-31T02:22:48.713Z,8.80
2022-12-31T02:28:02.683Z,9.60
2022-12-31T02:33:14.203Z,8.17
2022-12-31T02:38:21.250Z,8.10
2022-12-31T02:43:24.667Z,8.68
2022-12-31T02:48:41.824Z,7.73
2022-12-31T02:54:01.396Z,9.32
2022-12-31T02:59:29.635Z,8.95
2022-12-31T03:04:36.333Z,9.93
2022-12-31T03:09:40.180Z,8.38
2022-12-31T03:14:43.579Z,8.15
2022-12-31T03:20:05.831Z,7.32
2022-12-31T03:25:29.368Z,7.65
2022-12-31T03:30:33.330Z,7.10
2022-12-31T03:35:39.412Z,7.32
2022-12-31T03:40:44.840Z,6.63
2022-12-31T03:45:51.456Z,6.75
2022-12-31T03:50:56.240Z,7.65
2022-12-31T03:55:59.513Z,7.65
2022-12-31T04:01:02.887Z,7.43
2022-12-31T04:06:07.756Z,6.30
2022-12-31T04:11:14.676Z,6.38
2022-12-31T04:16:20.717Z,6.95
2022-12-31T04:21:30.080Z,7.45
2022-12-31T04:26:36.846Z,6.82
2022-12-31T04:31:40.175Z,7.13
2022-12-31T04:36:44.865Z,5.68
2022-12-31T04:41:48.187Z,5.50
2022-12-31T04:46:51.469Z,5.65
2022-12-31T04:51:56.152Z,6.70
2022-12-31T04:56:59.445Z,5.70
2022-12-31T05:02:02.944Z,5.68
2022-12-31T05:07:07.801Z,6.43
2022-12-31T05:12:11.092Z,6.47
2022-12-31T05:17:14.370Z,6.70
2022-12-31T05:22:30.995Z,6.90
2022-12-31T05:27:34.887Z,5.47
2022-12-31T05:32:38.305Z,6.65
2022-12-31T05:37:42.990Z,7.53
2022-12-31T05:42:46.627Z,6.85
2022-12-31T05:47:49.981Z,6.72
2022-12-31T05:52:54.651Z,6.50
2022-12-31T05:57:57.896Z,7.03
2022-12-31T06:03:01.302Z,8.05
2022-12-31T06:08:06.337Z,8.65
2022-12-31T06:13:09.743Z,7.70
2022-12-31T06:18:13.011Z,8.75
2022-12-31T06:23:17.680Z,7.30
2022-12-31T06:28:20.920Z,7.90
2022-12-31T06:33:24.298Z,7.40
2022-12-31T06:38:30.361Z,7.90
2022-12-31T06:43:33.686Z,7.35
2022-12-31T06:48:37.248Z,7.25
2022-12-31T06:53:42.047Z,8.32
2022-12-31T06:58:46.023Z,7.95
2022-12-31T07:03:57.999Z,6.80
2022-12-31T07:09:08.614Z,6.77
2022-12-31T07:14:24.871Z,7.93
2022-12-31T07:19:43.676Z,8.23
2022-12-31T07:24:48.954Z,9.43
2022-12-31T07:30:03.273Z,7.30
2022-12-31T07:35:17.042Z,7.77
2022-12-31T07:40:31.203Z,7.43
2022-12-31T07:45:43.752Z,3.28
2022-12-31T07:50:47.554Z,8.52
2022-12-31T07:55:56.453Z,6.43
2022-12-31T08:01:00.432Z,7.60
2022-12-31T08:06:12.765Z,8.27
2022-12-31T08:11:26.039Z,8.00
2022-12-31T08:16:30.252Z,8.93
2022-12-31T08:21:43.922Z,9.77
2022-12-31T08:26:56.146Z,11.68
2022-12-31T08:32:05.778Z,11.27
2022-12-31T08:37:14.542Z,9.00
2022-12-31T08:42:25.971Z,8.57
2022-12-31T08:47:38.416Z,9.05
2022-12-31T08:52:42.448Z,11.45
2022-12-31T08:57:54.993Z,10.65
2022-12-31T09:03:22.847Z,10.85
2022-12-31T09:08:35.170Z,10.00
2022-12-31T09:13:55.458Z,13.48
2022-12-31T09:18:58.690Z,14.05
2022-12-31T09:24:09.138Z,11.55
2022-12-31T09:29:26.407Z,14.23
2022-12-31T09:34:37.659Z,11.70
2022-12-31T09:39:43.553Z,8.20
2022-12-31T09:45:31.766Z,8.63
2022-12-31T09:50:53.805Z,9.32
2022-12-31T09:56:05.223Z,6.70
2022-12-31T10:01:23.556Z,7.38
2022-12-31T10:06:32.979Z,4.78
2022-12-31T10:11:59.028Z,5.00
2022-12-31T10:17:13.313Z,4.65
2022-12-31T10:22:43.592Z,4.75
2022-12-31T10:27:53.871Z,5.03
2022-12-31T10:33:08.754Z,4.60
2022-12-31T10:38:26.965Z,5.65
2022-12-31T10:44:00.620Z,4.60
2022-12-31T10:49:47.699Z,4.40
2022-12-31T10:55:26.549Z,5.10
2022-12-31T11:00:31.959Z,4.85
2022-12-31T11:06:13.571Z,4.43
2022-12-31T11:11:29.591Z,5.75
2022-12-31T11:16:52.836Z,4.00
2022-12-31T11:22:13.918Z,3.67
2022-12-31T11:27:32.203Z,3.40
2022-12-31T11:32:50.871Z,3.00
2022-12-31T11:37:59.582Z,3.13
2022-12-31T11:43:12.608Z,3.33
2022-12-31T11:48:30.973Z,4.03
2022-12-31T11:54:04.713Z,3.85
2022-12-31T11:59:18.916Z,4.63
2022-12-31T12:04:23.086Z,5.85
2022-12-31T12:09:29.693Z,4.45
2022-12-31T12:14:36.969Z,4.93
2022-12-31T12:19:44.613Z,4.75
2022-12-31T12:24:59.441Z,4.85
2022-12-31T12:30:12.163Z,4.78
2022-12-31T12:35:17.025Z,4.78
2022-12-31T12:40:29.814Z,4.20
2022-12-31T12:45:51.334Z,4.10
2022-12-31T12:50:55.516Z,4.07
2022-12-31T12:56:09.123Z,5.10
2022-12-31T13:01:22.796Z,4.28
2022-12-31T13:06:37.871Z,13.45
2022-12-31T13:11:49.150Z,7.65
2022-12-31T13:17:01.022Z,4.35
2022-12-31T13:22:09.764Z,6.45
2022-12-31T13:27:20.243Z,6.30
2022-12-31T13:32:31.274Z,4.20
2022-12-31T13:37:41.666Z,4.40
2022-12-31T13:42:52.957Z,4.22
2022-12-31T13:48:01.884Z,4.80
2022-12-31T13:53:11.925Z,7.28
2022-12-31T13:58:24.356Z,3.95
2022-12-31T14:03:40.735Z,4.32
2022-12-31T14:08:44.102Z,3.72
2022-12-31T14:14:04.611Z,4.53
2022-12-31T14:19:25.967Z,4.93
2022-12-31T14:24:44.056Z,6.07
2022-12-31T14:29:50.486Z,5.22
2022-12-31T14:35:03.271Z,5.78
2022-12-31T14:40:19.344Z,5.90
2022-12-31T14:45:42.978Z,5.18
2022-12-31T14:50:48.561Z,5.60
2022-12-31T14:55:59.774Z,5.32
2022-12-31T15:01:08.750Z,5.05
2022-12-31T15:06:32.732Z,5.20
2022-12-31T15:11:47.876Z,5.00
2022-12-31T15:16:59.879Z,5.22
2022-12-31T15:22:13.916Z,6.10
2022-12-31T15:27:32.022Z,6.38
2022-12-31T15:32:38.261Z,6.63
2022-12-31T15:37:43.193Z,7.15
2022-12-31T15:42:50.441Z,9.65
2022-12-31T15:47:59.138Z,7.85
2022-12-31T15:53:05.482Z,7.68
2022-12-31T15:58:13.579Z,10.70
2022-12-31T16:03:22.335Z,11.57
2022-12-31T16:08:31.133Z,11.95
2022-12-31T16:13:37.868Z,11.07
2022-12-31T16:18:42.758Z,10.07
2022-12-31T16:23:53.551Z,29.20
2022-12-31T16:29:00.024Z,25.55
2022-12-31T16:34:08.172Z,19.90
2022-12-31T16:39:26.908Z,18.73
2022-12-31T16:44:31.334Z,18.17
2022-12-31T16:49:37.005Z,13.98
2022-12-31T16:54:47.473Z,10.90
2022-12-31T16:59:55.847Z,9.80
2022-12-31T17:04:59.211Z,8.63
2022-12-31T17:10:14.043Z,10.90
2022-12-31T17:15:22.170Z,14.27
2022-12-31T17:20:28.365Z,13.52
2022-12-31T17:25:35.166Z,10.70
2022-12-31T17:30:43.614Z,10.50
2022-12-31T17:35:47.410Z,10.63
2022-12-31T17:40:54.284Z,8.82
2022-12-31T17:45:57.511Z,10.40
2022-12-31T17:51:02.237Z,11.38
2022-12-31T17:56:14.371Z,9.75
2022-12-31T18:01:19.319Z,10.25
2022-12-31T18:06:22.774Z,11.38
2022-12-31T18:11:27.412Z,10.65
2022-12-31T18:16:30.975Z,13.30
2022-12-31T18:21:36.190Z,14.95
2022-12-31T18:26:40.836Z,15.77
2022-12-31T18:31:46.928Z,11.82
2022-12-31T18:36:50.195Z,11.93
2022-12-31T18:41:54.775Z,14.13
2022-12-31T18:46:58.115Z,12.40
2022-12-31T18:52:01.398Z,13.15
2022-12-31T18:57:06.079Z,13.63
2022-12-31T19:02:16.591Z,12.73
2022-12-31T19:07:20.327Z,13.57
2022-12-31T19:12:24.944Z,14.88
2022-12-31T19:17:28.210Z,13.57
2022-12-31T19:22:31.465Z,14.50
2022-12-31T19:27:36.053Z,14.40
2022-12-31T19:32:39.268Z,15.77
2022-12-31T19:37:43.423Z,28.92
2022-12-31T19:42:48.066Z,21.17
2022-12-31T19:47:51.733Z,28.88
2022-12-31T19:52:57.993Z,19.85
2022-12-31T19:58:02.607Z,17.13
2022-12-31T20:03:05.919Z,33.88
2022-12-31T20:08:09.275Z,26.25
2022-12-31T20:13:14.022Z,34.63
2022-12-31T20:18:21.169Z,31.35
2022-12-31T20:23:24.467Z,23.08
2022-12-31T20:28:29.235Z,26.45
2022-12-31T20:33:32.492Z,23.58
2022-12-31T20:38:36.062Z,22.27
2022-12-31T20:43:41.180Z,18.52
2022-12-31T20:48:44.928Z,19.95
2022-12-31T20:53:49.495Z,27.07
2022-12-31T20:58:54.207Z,26.45
2022-12-31T21:04:07.109Z,26.55
2022-12-31T21:09:10.788Z,45.90
2022-12-31T21:14:15.662Z,38.15
2022-12-31T21:19:18.927Z,32.58
2022-12-31T21:24:24.188Z,33.90
2022-12-31T21:29:34.266Z,17.17
2022-12-31T21:34:38.447Z,13.50
2022-12-31T21:39:41.772Z,12.73
2022-12-31T21:44:46.439Z,12.55
2022-12-31T21:49:49.912Z,12.18
2022-12-31T21:55:10.564Z,14.25
2022-12-31T22:00:42.345Z,19.95
2022-12-31T22:05:48.813Z,13.35
2022-12-31T22:10:53.002Z,14.05
2022-12-31T22:16:04.635Z,14.70
2022-12-31T22:21:17.754Z,14.95
2022-12-31T22:26:23.962Z,15.43
2022-12-31T22:31:31.058Z,16.52
2022-12-31T22:36:34.453Z,15.80
2022-12-31T22:41:40.038Z,14.43
2022-12-31T22:46:45.760Z,14.32
2022-12-31T22:51:55.996Z,13.38
2022-12-31T22:57:02.451Z,42.05
2022-12-31T23:02:07.124Z,220.90
2022-12-31T23:07:10.418Z,156.25
2022-12-31T23:12:13.772Z,111.57
2022-12-31T23:17:40.635Z,67.95
2022-12-31T23:23:01.569Z,62.40
2022-12-31T23:28:05.689Z,64.75
2022-12-31T23:33:15.782Z,55.47
2022-12-31T23:38:20.042Z,34.10
2022-12-31T23:43:24.006Z,40.47
2022-12-31T23:48:28.616Z,68.75
2022-12-31T23:53:31.892Z,73.05
2022-12-31T23:58:35.495Z,61.90
